Time;durP1;ratioP1;P1;durP2;ratioP2;P2;SDS_P1;SDS_P2;PMS_P1;PMS_P2;Temp;Humidity;BMP_temperature;BMP_pressure;BME280_temperature;BME280_humidity;BME280_pressure;Samples;Min_cycle;Max_cycle;Signal;HPM_P1;HPM_P2
2023/07/13 00:00:22;;;;;;;5.00;2.00;;;16.20;99.90;;;;;;5017563;28;20045;-84
2023/07/13 00:02:47;;;;;;;12.95;2.90;;;16.10;99.90;;;;;;5033520;28;20041;-84
2023/07/13 00:05:13;;;;;;;11.57;3.00;;;16.10;99.90;;;;;;5033963;28;20064;-85
2023/07/13 00:07:38;;;;;;;8.75;2.15;;;16.10;99.90;;;;;;5017811;28;20041;-84
2023/07/13 00:10:05;;;;;;;10.95;2.42;;;16.00;99.90;;;;;;5017464;28;20036;-85
2023/07/13 00:12:33;;;;;;;10.60;2.63;;;15.90;99.90;;;;;;5034177;28;20048;-84
2023/07/13 00:15:01;;;;;;;10.90;3.50;;;15.90;99.90;;;;;;5033932;28;20689;-85
2023/07/13 00:17:27;;;;;;;10.68;2.00;;;16.00;99.90;;;;;;5017253;28;20043;-84
2023/07/13 00:19:55;;;;;;;12.98;3.15;;;15.90;99.90;;;;;;5017222;28;20037;-85
2023/07/13 00:22:21;;;;;;;11.57;3.35;;;15.90;99.90;;;;;;5033317;28;20044;-85
2023/07/13 00:24:47;;;;;;;11.80;3.20;;;16.00;99.90;;;;;;5033363;28;20072;-85
2023/07/13 00:27:13;;;;;;;10.30;1.85;;;16.10;99.90;;;;;;5033687;28;20103;-84
2023/07/13 00:29:39;;;;;;;11.00;3.05;;;16.00;99.90;;;;;;5033751;28;20040;-85
2023/07/13 00:32:06;;;;;;;9.55;1.92;;;16.00;99.90;;;;;;5017104;28;20037;-85
2023/07/13 00:34:32;;;;;;;10.93;3.05;;;15.90;99.90;;;;;;5033213;28;20045;-84
2023/07/13 00:36:58;;;;;;;6.43;1.73;;;16.00;99.90;;;;;;5033679;28;20044;-85
2023/07/13 00:39:24;;;;;;;11.00;2.70;;;15.90;99.90;;;;;;5032569;28;20407;-84
2023/07/13 00:41:50;;;;;;;11.35;2.15;;;15.90;99.90;;;;;;5033194;28;20040;-84
2023/07/13 00:44:17;;;;;;;8.55;2.03;;;15.90;99.90;;;;;;5016247;28;20056;-84
2023/07/13 00:46:42;;;;;;;12.10;3.60;;;15.80;99.90;;;;;;5033726;28;20119;-84
2023/07/13 00:49:14;;;;;;;7.20;1.88;;;15.80;99.90;;;;;;5033521;28;20123;-84
2023/07/13 00:51:45;;;;;;;10.15;2.90;;;15.80;99.90;;;;;;5017280;28;20052;-84
2023/07/13 00:54:17;;;;;;;6.43;2.03;;;15.90;99.90;;;;;;5016492;28;20076;-85
2023/07/13 00:56:45;;;;;;;11.25;3.03;;;15.80;99.90;;;;;;5033567;28;20044;-84
2023/07/13 00:59:13;;;;;;;11.95;3.28;;;15.90;99.90;;;;;;5016837;28;20056;-85
2023/07/13 01:01:39;;;;;;;14.18;3.25;;;16.00;99.90;;;;;;5032815;28;20040;-84
2023/07/13 01:04:07;;;;;;;12.38;3.60;;;16.00;99.90;;;;;;5032738;28;20124;-84
2023/07/13 01:06:37;;;;;;;11.10;3.42;;;16.10;99.90;;;;;;5016898;28;20124;-84
2023/07/13 01:09:04;;;;;;;12.77;3.42;;;16.10;99.90;;;;;;5033304;28;20522;-84
2023/07/13 01:11:30;;;;;;;7.90;1.90;;;16.10;99.90;;;;;;5033065;28;20033;-84
2023/07/13 01:13:55;;;;;;;10.30;3.40;;;16.10;99.90;;;;;;5032814;28;20040;-84
2023/07/13 01:16:27;;;;;;;10.38;2.83;;;16.10;99.90;;;;;;5032943;28;20037;-84
2023/07/13 01:18:53;;;;;;;14.90;3.72;;;16.10;99.90;;;;;;5016745;28;20049;-85
2023/07/13 01:21:19;;;;;;;11.52;2.38;;;16.10;99.90;;;;;;5033310;28;20148;-85
2023/07/13 01:23:44;;;;;;;10.30;2.38;;;16.10;99.90;;;;;;5040250;28;20519;-82
2023/07/13 01:26:11;;;;;;;16.45;3.80;;;16.00;99.90;;;;;;5017562;28;20072;-84
2023/07/13 01:28:37;;;;;;;13.82;4.00;;;16.10;99.90;;;;;;5017198;28;20051;-85
2023/07/13 01:31:04;;;;;;;16.60;4.13;;;16.10;99.90;;;;;;5033662;28;20076;-84
2023/07/13 01:33:30;;;;;;;12.60;3.50;;;16.10;99.90;;;;;;5033331;28;20045;-83
2023/07/13 01:35:58;;;;;;;11.80;3.30;;;16.20;99.90;;;;;;5033433;28;20047;-85
2023/07/13 01:38:24;;;;;;;9.00;2.22;;;16.20;99.90;;;;;;5033685;28;20033;-83
2023/07/13 01:40:51;;;;;;;8.52;1.95;;;16.10;99.90;;;;;;5034486;28;20055;-83
2023/07/13 01:43:18;;;;;;;10.90;2.90;;;16.10;99.90;;;;;;5050781;28;20091;-83
2023/07/13 01:45:44;;;;;;;13.48;3.80;;;16.10;99.90;;;;;;5033453;28;20045;-84
2023/07/13 01:48:10;;;;;;;11.85;3.30;;;16.20;99.90;;;;;;5033153;28;20048;-84
2023/07/13 01:50:36;;;;;;;11.10;3.00;;;16.20;99.90;;;;;;5034500;28;20071;-84
2023/07/13 01:53:02;;;;;;;13.75;4.00;;;16.20;99.90;;;;;;5019977;28;20072;-84
2023/07/13 01:55:29;;;;;;;11.38;2.20;;;16.20;99.90;;;;;;5020225;28;20037;-84
2023/07/13 01:57:55;;;;;;;9.52;2.63;;;16.20;99.90;;;;;;5036342;28;20041;-84
2023/07/13 02:00:21;;;;;;;11.45;2.42;;;16.10;99.90;;;;;;5036315;28;20420;-84
2023/07/13 02:02:47;;;;;;;11.95;3.65;;;16.20;99.90;;;;;;5035862;28;20041;-84
2023/07/13 02:05:13;;;;;;;12.05;3.40;;;16.20;99.90;;;;;;5036156;28;20399;-84
2023/07/13 02:07:39;;;;;;;11.45;3.30;;;16.20;99.90;;;;;;5036284;28;20033;-84
2023/07/13 02:10:07;;;;;;;12.77;3.78;;;16.30;99.90;;;;;;5020290;28;20043;-84
2023/07/13 02:12:33;;;;;;;13.60;3.83;;;16.30;99.90;;;;;;5036216;28;20579;-84
2023/07/13 02:14:59;;;;;;;10.43;3.00;;;16.30;99.90;;;;;;5036044;28;20033;-84
2023/07/13 02:17:25;;;;;;;13.60;3.33;;;16.30;99.90;;;;;;5036309;28;20404;-85
2023/07/13 02:19:51;;;;;;;13.10;3.92;;;16.20;99.90;;;;;;5036328;28;20159;-84
2023/07/13 02:22:16;;;;;;;9.63;2.45;;;16.30;99.90;;;;;;5035631;28;20029;-85
2023/07/13 02:24:42;;;;;;;13.65;3.40;;;16.20;99.90;;;;;;5019149;28;20037;-84
2023/07/13 02:27:08;;;;;;;14.55;3.42;;;16.20;99.90;;;;;;5019436;28;20041;-84
2023/07/13 02:29:33;;;;;;;13.77;2.75;;;16.20;99.90;;;;;;5036142;28;20041;-85
2023/07/13 02:31:59;;;;;;;15.93;4.07;;;16.20;99.90;;;;;;5019199;28;20033;-84
2023/07/13 02:34:25;;;;;;;13.35;3.60;;;16.20;99.90;;;;;;5019326;28;20037;-84
2023/07/13 02:36:50;;;;;;;14.50;3.92;;;16.20;99.90;;;;;;5019650;28;20045;-84
2023/07/13 02:39:16;;;;;;;12.77;4.03;;;16.30;99.90;;;;;;5036062;28;20404;-85
2023/07/13 02:41:42;;;;;;;13.73;3.35;;;16.30;99.90;;;;;;5035868;28;20171;-86
2023/07/13 02:44:08;;;;;;;14.02;3.85;;;16.20;99.90;;;;;;5018461;28;20037;-84
2023/07/13 02:46:36;;;;;;;12.88;4.07;;;16.20;99.90;;;;;;5019305;28;20495;-84
2023/07/13 02:49:04;;;;;;;14.70;4.05;;;16.30;99.90;;;;;;5019506;28;20059;-84
2023/07/13 02:51:30;;;;;;;15.07;4.47;;;16.30;99.90;;;;;;5035537;28;20041;-85
2023/07/13 02:53:56;;;;;;;9.90;2.72;;;16.30;99.90;;;;;;5035265;28;20120;-84
2023/07/13 02:56:27;;;;;;;15.68;4.50;;;16.20;99.90;;;;;;5035350;28;20123;-84
2023/07/13 02:58:54;;;;;;;13.63;3.45;;;16.20;99.90;;;;;;5035491;28;20048;-84
2023/07/13 03:01:21;;;;;;;9.00;2.80;;;16.20;99.90;;;;;;5018443;28;20408;-84
2023/07/13 03:03:47;;;;;;;14.55;4.28;;;16.10;99.90;;;;;;5017930;28;20045;-84
2023/07/13 03:06:14;;;;;;;8.77;2.65;;;16.20;99.90;;;;;;5034918;28;20045;-86
2023/07/13 03:08:40;;;;;;;14.15;4.15;;;16.20;99.90;;;;;;5035422;28;20123;-84
2023/07/13 03:11:18;;;;;;;15.10;4.30;;;16.20;99.90;;;;;;5035246;28;20479;-84
2023/07/13 03:13:44;;;;;;;10.77;2.58;;;16.20;99.90;;;;;;5018248;28;20029;-85
2023/07/13 03:16:11;;;;;;;13.98;4.18;;;16.10;99.90;;;;;;5035312;28;20106;-85
2023/07/13 03:18:37;;;;;;;14.60;3.75;;;16.20;99.90;;;;;;5018379;28;20094;-84
2023/07/13 03:21:04;;;;;;;8.30;2.20;;;16.20;99.90;;;;;;5018271;28;20043;-84
2023/07/13 03:23:30;;;;;;;13.48;4.45;;;16.10;99.90;;;;;;5018032;28;20036;-84
2023/07/13 03:26:08;;;;;;;14.70;4.28;;;16.10;99.90;;;;;;5034848;28;20641;-84
2023/07/13 03:28:33;;;;;;;10.88;2.70;;;16.20;99.90;;;;;;5034762;28;20122;-85
2023/07/13 03:31:10;;;;;;;12.85;3.90;;;16.10;99.90;;;;;;5034797;28;20434;-84
2023/07/13 03:33:36;;;;;;;16.10;4.18;;;16.10;99.90;;;;;;5017876;28;20033;-85
2023/07/13 03:36:05;;;;;;;10.07;2.67;;;16.10;99.90;;;;;;5034822;28;20087;-84
2023/07/13 03:38:31;;;;;;;10.15;2.75;;;16.10;99.90;;;;;;5018295;28;20045;-85
2023/07/13 03:40:56;;;;;;;14.63;4.18;;;16.00;99.90;;;;;;5018404;28;20538;-85
2023/07/13 03:43:22;;;;;;;11.75;4.43;;;16.10;99.90;;;;;;5033393;28;20058;-85
2023/07/13 03:45:47;;;;;;;15.75;4.60;;;16.10;99.90;;;;;;5033948;28;20041;-84
2023/07/13 03:48:14;;;;;;;8.18;2.95;;;16.10;99.90;;;;;;5018211;28;20089;-85
2023/07/13 03:50:40;;;;;;;13.05;4.35;;;16.10;99.90;;;;;;5034741;28;20036;-85
2023/07/13 03:53:05;;;;;;;14.00;4.53;;;16.00;99.90;;;;;;5034587;28;20105;-85
2023/07/13 03:55:31;;;;;;;11.88;4.22;;;16.10;99.90;;;;;;5034033;28;20051;-85
2023/07/13 03:58:25;;;;;;;10.57;2.50;;;16.00;99.90;;;;;;5017913;28;20033;-85
2023/07/13 04:00:50;;;;;;;13.48;4.13;;;16.00;99.90;;;;;;5017699;28;20094;-85
2023/07/13 04:03:16;;;;;;;13.27;4.55;;;16.00;99.90;;;;;;5033413;28;20530;-84
2023/07/13 04:05:42;;;;;;;14.25;4.32;;;16.00;99.90;;;;;;5033516;28;20029;-85
2023/07/13 04:08:07;;;;;;;13.38;3.88;;;16.00;99.90;;;;;;5017265;28;20080;-85
2023/07/13 04:10:33;;;;;;;10.93;2.83;;;16.00;99.90;;;;;;5033596;28;20037;-85
2023/07/13 04:12:58;;;;;;;13.52;4.35;;;15.90;99.90;;;;;;5032904;28;20037;-85
2023/07/13 04:15:24;;;;;;;13.23;4.22;;;15.90;99.90;;;;;;5017277;28;20041;-85
2023/07/13 04:17:49;;;;;;;14.88;3.35;;;15.90;99.90;;;;;;5033553;28;20044;-84
2023/07/13 04:20:15;;;;;;;15.57;4.43;;;15.90;99.90;;;;;;5033856;28;20487;-84
2023/07/13 04:22:41;;;;;;;12.43;4.20;;;15.90;99.90;;;;;;5033649;28;20055;-84
2023/07/13 04:25:07;;;;;;;14.07;4.43;;;15.90;99.90;;;;;;5033551;28;20523;-85
2023/07/13 04:27:32;;;;;;;11.45;2.53;;;15.90;99.90;;;;;;5033724;28;20119;-85
2023/07/13 04:29:58;;;;;;;13.00;2.75;;;15.90;99.90;;;;;;5033953;28;20037;-84
2023/07/13 04:32:23;;;;;;;14.38;4.18;;;15.80;99.90;;;;;;5033577;28;20123;-85
2023/07/13 04:34:54;;;;;;;14.55;4.07;;;15.80;99.90;;;;;;5017079;28;20032;-84
2023/07/13 04:37:20;;;;;;;8.68;2.65;;;15.90;99.90;;;;;;5016997;28;20048;-84
2023/07/13 04:39:46;;;;;;;13.43;4.10;;;15.80;99.90;;;;;;5033342;28;20499;-84
2023/07/13 04:42:12;;;;;;;13.52;4.35;;;15.80;99.90;;;;;;5016944;28;20063;-84
2023/07/13 04:44:38;;;;;;;9.60;3.03;;;15.80;99.90;;;;;;5015727;28;20037;-84
2023/07/13 04:47:03;;;;;;;11.25;4.10;;;15.70;99.90;;;;;;5016495;28;20045;-85
2023/07/13 04:49:30;;;;;;;11.93;2.90;;;15.70;99.90;;;;;;5033501;28;20041;-85
2023/07/13 04:51:55;;;;;;;10.63;3.58;;;15.70;99.90;;;;;;5016484;28;20052;-84
2023/07/13 04:54:22;;;;;;;14.98;4.28;;;15.60;99.90;;;;;;5032682;28;20040;-84
2023/07/13 04:56:47;;;;;;;12.35;4.53;;;15.70;99.90;;;;;;5016993;28;20037;-85
2023/07/13 04:59:13;;;;;;;10.70;3.38;;;15.70;99.90;;;;;;5032475;28;20518;-84
2023/07/13 05:01:40;;;;;;;13.45;4.70;;;15.60;99.90;;;;;;5050738;28;20492;-84
2023/07/13 05:04:06;;;;;;;11.13;4.40;;;15.60;99.90;;;;;;5032179;28;20044;-85
2023/07/13 05:06:32;;;;;;;15.23;4.57;;;15.70;99.90;;;;;;5032017;28;20040;-85
2023/07/13 05:08:57;;;;;;;12.60;4.97;;;15.70;99.90;;;;;;5016165;28;20090;-84
2023/07/13 05:11:23;;;;;;;14.13;5.50;;;15.70;99.90;;;;;;5032888;28;20037;-84
2023/07/13 05:13:49;;;;;;;10.50;3.25;;;15.70;99.90;;;;;;5032106;28;20041;-85
2023/07/13 05:16:15;;;;;;;14.10;2.83;;;15.70;99.90;;;;;;5032792;28;20479;-84
2023/07/13 05:18:40;;;;;;;10.88;3.60;;;15.70;99.90;;;;;;5032232;28;20033;-84
2023/07/13 05:21:08;;;;;;;9.52;3.20;;;15.70;99.90;;;;;;5016287;28;20124;-84
2023/07/13 05:23:35;;;;;;;15.38;5.20;;;15.70;99.90;;;;;;5015840;28;20069;-84
2023/07/13 05:26:02;;;;;;;15.95;5.25;;;15.80;99.90;;;;;;5034820;28;20047;-84
2023/07/13 05:28:30;;;;;;;13.38;4.95;;;15.90;99.90;;;;;;5020551;28;20061;-85
2023/07/13 05:30:55;;;;;;;14.77;5.18;;;15.90;99.90;;;;;;5020076;28;20044;-85
2023/07/13 05:33:21;;;;;;;13.18;4.97;;;16.00;99.90;;;;;;5036046;28;20037;-84
2023/07/13 05:35:47;;;;;;;15.02;5.50;;;16.10;99.90;;;;;;5036640;28;20044;-84
2023/07/13 05:38:13;;;;;;;11.13;2.97;;;16.10;99.90;;;;;;5036880;28;20041;-84
2023/07/13 05:40:38;;;;;;;13.55;3.30;;;16.10;99.90;;;;;;5036271;28;20041;-84
2023/07/13 05:43:04;;;;;;;11.75;3.80;;;16.10;99.90;;;;;;5019461;28;20079;-85
2023/07/13 05:45:30;;;;;;;16.25;5.38;;;16.20;99.90;;;;;;5019647;28;20099;-84
2023/07/13 05:47:55;;;;;;;14.75;5.30;;;16.30;99.90;;;;;;5036298;28;20048;-85
2023/07/13 05:50:21;;;;;;;14.82;5.60;;;16.30;99.90;;;;;;5036428;28;20048;-84
2023/07/13 05:52:47;;;;;;;14.90;5.47;;;16.40;99.90;;;;;;5035844;28;20492;-85
2023/07/13 05:55:13;;;;;;;13.90;3.25;;;16.40;99.90;;;;;;5036487;28;20094;-85
2023/07/13 05:57:39;;;;;;;12.80;4.07;;;16.40;99.90;;;;;;5036801;28;20121;-85
2023/07/13 06:00:05;;;;;;;17.42;5.72;;;16.40;99.90;;;;;;5036168;28;20040;-85
2023/07/13 06:02:30;;;;;;;16.95;5.43;;;16.50;99.90;;;;;;5037674;28;20064;-85
2023/07/13 06:04:56;;;;;;;11.40;3.33;;;16.60;99.90;;;;;;5035846;28;20521;-85
2023/07/13 06:07:21;;;;;;;15.00;5.00;;;16.70;99.90;;;;;;5036094;28;20051;-85
2023/07/13 06:09:47;;;;;;;15.48;4.80;;;16.70;99.90;;;;;;5036475;28;20043;-85
2023/07/13 06:12:13;;;;;;;14.35;5.07;;;16.80;99.90;;;;;;5036212;28;20064;-85
2023/07/13 06:14:38;;;;;;;12.30;5.15;;;16.90;99.90;;;;;;5035701;28;20037;-85
2023/07/13 06:17:04;;;;;;;10.05;3.55;;;17.00;99.90;;;;;;5053753;28;20049;-84
2023/07/13 06:19:30;;;;;;;13.05;5.05;;;17.00;99.90;;;;;;5018366;28;20037;-85
2023/07/13 06:21:55;;;;;;;11.40;2.95;;;17.10;99.90;;;;;;5035807;28;20538;-85
2023/07/13 06:24:22;;;;;;;11.80;3.72;;;17.10;99.90;;;;;;5018517;28;20411;-85
2023/07/13 06:26:47;;;;;;;13.85;5.00;;;17.20;99.90;;;;;;5034952;28;20520;-85
2023/07/13 06:29:13;;;;;;;13.23;4.90;;;17.20;99.90;;;;;;5019658;28;20037;-85
2023/07/13 06:31:38;;;;;;;13.15;3.92;;;17.30;99.90;;;;;;5034940;28;20048;-85
2023/07/13 06:34:04;;;;;;;11.98;4.50;;;17.30;99.90;;;;;;5035389;28;20045;-85
2023/07/13 06:36:29;;;;;;;13.77;4.85;;;17.30;99.90;;;;;;5019539;28;20108;-85
2023/07/13 06:38:55;;;;;;;13.52;5.10;;;17.40;99.90;;;;;;5035197;28;20040;-85
2023/07/13 06:41:22;;;;;;;13.65;4.50;;;17.50;99.90;;;;;;5035800;28;20106;-85
2023/07/13 06:43:47;;;;;;;14.20;5.03;;;17.60;99.90;;;;;;5035093;28;20045;-85
2023/07/13 06:46:13;;;;;;;13.25;4.82;;;17.70;99.90;;;;;;5035015;28;20048;-85
2023/07/13 06:48:38;;;;;;;15.73;5.57;;;17.70;99.90;;;;;;5035164;28;20041;-85
2023/07/13 06:51:04;;;;;;;18.48;5.43;;;17.80;99.90;;;;;;5036015;28;20044;-85
2023/07/13 06:53:30;;;;;;;13.32;4.85;;;17.90;99.90;;;;;;5034508;28;20047;-85
2023/07/13 06:55:55;;;;;;;16.30;4.88;;;18.00;99.90;;;;;;5035555;28;20036;-85
2023/07/13 06:58:21;;;;;;;12.95;3.95;;;18.10;99.90;;;;;;5018817;28;20131;-85
2023/07/13 07:00:51;;;;;;;14.77;5.57;;;18.20;99.90;;;;;;5035047;28;20079;-85
2023/07/13 07:03:16;;;;;;;14.65;5.18;;;18.30;99.90;;;;;;5034739;28;20516;-85
2023/07/13 07:05:42;;;;;;;14.73;5.53;;;18.40;99.90;;;;;;5018290;28;20047;-85
2023/07/13 07:08:08;;;;;;;17.25;6.95;;;18.50;99.90;;;;;;5018674;28;20041;-85
2023/07/13 07:10:34;;;;;;;14.52;5.47;;;18.50;99.90;;;;;;5035187;28;20037;-85
2023/07/13 07:12:59;;;;;;;13.00;4.90;;;18.50;99.90;;;;;;5034272;28;20396;-85
2023/07/13 07:15:26;;;;;;;13.90;4.63;;;18.50;99.90;;;;;;5035088;28;20037;-85
2023/07/13 07:17:51;;;;;;;12.15;5.03;;;18.50;99.90;;;;;;5035317;28;20060;-85
2023/07/13 07:20:17;;;;;;;11.82;5.00;;;18.40;99.90;;;;;;5035493;28;20086;-85
2023/07/13 07:22:42;;;;;;;12.88;5.28;;;18.40;99.90;;;;;;5018637;28;20074;-85
2023/07/13 07:25:08;;;;;;;13.30;5.45;;;18.40;99.90;;;;;;5034579;28;20508;-85
2023/07/13 07:27:34;;;;;;;15.65;5.43;;;18.40;99.90;;;;;;5034460;28;20048;-85
2023/07/13 07:29:59;;;;;;;13.63;5.35;;;18.40;99.90;;;;;;5034899;28;20044;-85
2023/07/13 07:32:25;;;;;;;12.57;4.90;;;18.40;99.90;;;;;;5034967;28;20029;-85
2023/07/13 07:34:51;;;;;;;13.57;5.30;;;18.40;99.90;;;;;;5033716;28;20094;-85
2023/07/13 07:37:16;;;;;;;14.23;5.32;;;18.30;99.90;;;;;;5034395;28;20068;-85
2023/07/13 07:39:45;;;;;;;16.85;5.25;;;18.30;99.90;;;;;;5018101;28;20048;-85
2023/07/13 07:42:12;;;;;;;12.45;3.80;;;18.30;99.90;;;;;;5033753;28;20036;-85
2023/07/13 07:44:40;;;;;;;10.88;3.67;;;18.20;99.90;;;;;;5031930;28;20044;-85
2023/07/13 07:47:06;;;;;;;16.80;5.80;;;18.10;99.90;;;;;;5033280;28;20049;-85
2023/07/13 07:49:32;;;;;;;16.65;5.55;;;18.20;99.90;;;;;;5017413;28;20045;-84
2023/07/13 07:51:57;;;;;;;12.60;5.10;;;18.20;99.90;;;;;;5034673;28;20043;-85
2023/07/13 07:54:23;;;;;;;16.65;6.10;;;18.20;99.90;;;;;;5033508;28;20041;-85
2023/07/13 07:56:49;;;;;;;15.68;5.22;;;18.20;99.90;;;;;;5034551;28;20143;-85
2023/07/13 07:59:14;;;;;;;14.35;5.13;;;18.20;99.90;;;;;;5034011;28;20053;-85
2023/07/13 08:01:40;;;;;;;16.00;5.22;;;18.30;99.90;;;;;;5034045;28;20041;-85
2023/07/13 08:04:05;;;;;;;15.02;5.68;;;18.30;99.90;;;;;;5033457;28;20579;-85
2023/07/13 08:06:33;;;;;;;15.75;5.32;;;18.40;99.90;;;;;;5033327;28;20068;-85
2023/07/13 08:08:59;;;;;;;19.17;5.97;;;18.50;99.90;;;;;;5033568;28;20048;-85
2023/07/13 08:11:25;;;;;;;11.75;5.30;;;18.60;99.90;;;;;;5033632;28;20040;-85
2023/07/13 08:13:50;;;;;;;16.73;5.68;;;18.60;99.90;;;;;;5032925;28;20040;-85
2023/07/13 08:16:16;;;;;;;12.75;5.90;;;18.70;99.90;;;;;;5033994;28;20040;-85
2023/07/13 08:18:42;;;;;;;12.57;5.68;;;18.80;99.90;;;;;;5034090;28;20417;-85
2023/07/13 08:21:08;;;;;;;12.27;5.47;;;18.80;99.90;;;;;;5017378;28;20040;-85
2023/07/13 08:23:35;;;;;;;13.70;5.63;;;18.80;99.90;;;;;;5033387;28;20041;-85
2023/07/13 08:26:01;;;;;;;15.18;6.07;;;18.90;99.90;;;;;;5033552;28;20045;-85
2023/07/13 08:28:28;;;;;;;12.85;6.00;;;18.90;99.90;;;;;;5033445;28;20504;-85
2023/07/13 08:30:53;;;;;;;16.33;6.20;;;19.10;99.90;;;;;;5017304;28;20044;-85
2023/07/13 08:33:21;;;;;;;14.07;5.82;;;19.10;99.90;;;;;;5033129;28;20049;-85
2023/07/13 08:35:47;;;;;;;16.15;6.53;;;19.20;99.90;;;;;;5017067;28;20147;-85
2023/07/13 08:38:13;;;;;;;13.85;5.90;;;19.20;99.90;;;;;;5033596;28;20044;-85
2023/07/13 08:40:40;;;;;;;15.90;6.20;;;19.20;99.90;;;;;;5016872;28;20040;-85
2023/07/13 08:43:13;;;;;;;14.52;6.22;;;19.20;99.90;;;;;;5033153;28;20558;-84
2023/07/13 08:45:59;;;;;;;15.68;6.45;;;19.30;99.90;;;;;;5032630;28;20033;-85
2023/07/13 08:48:36;;;;;;;12.73;6.93;;;19.30;99.90;;;;;;5033213;28;20036;-85
2023/07/13 08:51:25;;;;;;;17.75;7.65;;;19.30;99.90;;;;;;5033386;28;20416;-84
2023/07/13 08:53:54;;;;;;;15.55;7.15;;;19.40;99.90;;;;;;5016455;28;20041;-84
2023/07/13 08:56:24;;;;;;;17.13;7.72;;;19.40;99.90;;;;;;5016931;28;20415;-84
2023/07/13 08:58:56;;;;;;;12.43;6.32;;;19.50;99.90;;;;;;5017099;28;20076;-85
2023/07/13 09:01:52;;;;;;;16.23;6.88;;;19.50;99.90;;;;;;5032443;28;20132;-86
2023/07/13 09:04:39;;;;;;;14.93;6.63;;;19.50;99.90;;;;;;5032885;28;20059;-85
2023/07/13 09:07:41;;;;;;;17.58;7.43;;;19.50;99.90;;;;;;5032787;28;20044;-84
2023/07/13 09:10:36;;;;;;;18.03;7.30;;;19.50;99.90;;;;;;5033865;28;20037;-85
2023/07/13 09:13:41;;;;;;;16.23;7.78;;;19.40;99.90;;;;;;5032641;28;20052;-85
2023/07/13 09:16:09;;;;;;;18.58;9.65;;;19.10;99.90;;;;;;5032566;28;20111;-84
2023/07/13 09:18:39;;;;;;;17.52;10.00;;;18.90;99.90;;;;;;5033256;28;20051;-84
2023/07/13 09:21:13;;;;;;;17.77;10.68;;;18.80;99.90;;;;;;5031998;28;20040;-84
2023/07/13 09:23:39;;;;;;;15.07;9.52;;;18.80;99.90;;;;;;5032641;28;20047;-84
2023/07/13 09:26:20;;;;;;;18.77;10.35;;;18.80;99.90;;;;;;5032690;28;20040;-85
2023/07/13 09:28:49;;;;;;;17.38;9.35;;;18.70;99.90;;;;;;5032753;28;20041;-84
2023/07/13 09:53:30;;;;;;;3.95;1.30;;;16.00;99.90;;;;;;5108290;27;20457;-86
2023/07/13 09:55:56;;;;;;;2.72;0.95;;;16.20;99.90;;;;;;5108174;28;20044;-87
2023/07/13 09:58:26;;;;;;;4.47;1.33;;;16.10;99.90;;;;;;5107717;28;20047;-86
2023/07/13 10:00:59;;;;;;;4.50;1.50;;;16.10;99.90;;;;;;5090253;28;20042;-88
2023/07/13 10:03:29;;;;;;;;;;;16.20;99.90;;;;;;5107008;28;20036;-87
2023/07/13 10:06:10;;;;;;;4.05;1.20;;;16.10;99.90;;;;;;5089678;28;19916;-87
2023/07/13 10:08:36;;;;;;;3.83;1.15;;;16.10;99.90;;;;;;5107191;28;20036;-87
2023/07/13 10:11:20;;;;;;;3.83;1.25;;;16.20;99.90;;;;;;5090369;28;20500;-87
2023/07/13 10:13:59;;;;;;;3.72;1.25;;;16.30;99.90;;;;;;5107123;28;20502;-88
2023/07/13 10:16:27;;;;;;;4.75;1.70;;;16.40;99.90;;;;;;5107812;28;20401;-87
2023/07/13 10:19:05;;;;;;;4.25;1.63;;;16.50;99.90;;;;;;5107311;28;20038;-87
2023/07/13 10:21:43;;;;;;;4.50;1.65;;;16.60;99.90;;;;;;5106624;28;20040;-87
2023/07/13 10:24:33;;;;;;;4.78;1.65;;;16.70;99.90;;;;;;5106886;28;20036;-87
2023/07/13 10:27:04;;;;;;;7.30;2.40;;;16.80;99.90;;;;;;5074088;28;20083;-87
2023/07/13 10:29:35;;;;;;;7.25;2.83;;;16.90;99.90;;;;;;5106918;28;20035;-87
2023/07/13 10:32:01;;;;;;;7.53;3.08;;;17.20;99.90;;;;;;5106190;28;20043;-87
2023/07/13 10:34:27;;;;;;;8.43;3.60;;;17.40;99.90;;;;;;5090400;28;20062;-87
2023/07/13 10:36:53;;;;;;;9.80;4.47;;;17.60;99.90;;;;;;5106861;28;20039;-87
2023/07/13 10:39:24;;;;;;;8.75;4.65;;;17.90;99.90;;;;;;5106979;28;20097;-87
2023/07/13 10:41:57;;;;;;;9.15;4.22;;;18.00;99.90;;;;;;5106076;28;20455;-87
2023/07/13 10:44:28;;;;;;;10.60;5.20;;;18.20;99.90;;;;;;5089928;28;20172;-88
2023/07/13 10:47:14;;;;;;;11.80;5.25;;;18.50;99.90;;;;;;5089762;28;20036;-87
2023/07/13 10:49:41;;;;;;;11.65;6.10;;;18.70;99.90;;;;;;5106741;28;20040;-88
2023/07/13 10:52:47;;;;;;;14.18;5.65;;;19.00;99.90;;;;;;5089002;28;20043;-88
2023/07/13 10:55:32;;;;;;;10.10;6.38;;;19.20;99.90;;;;;;5076586;28;20475;-88
2023/07/13 10:58:10;;;;;;;10.93;6.45;;;19.30;99.90;;;;;;5076280;28;20071;-88
2023/07/13 11:00:46;;;;;;;11.02;6.05;;;19.30;99.90;;;;;;5093191;28;20047;-88
2023/07/13 11:03:14;;;;;;;11.60;6.20;;;19.30;99.90;;;;;;5091307;28;20123;-88
2023/07/13 11:05:40;;;;;;;10.45;6.13;;;19.30;99.90;;;;;;5092829;28;20036;-87
2023/07/13 11:08:16;;;;;;;10.75;5.65;;;19.40;99.90;;;;;;5075598;28;20039;-88
2023/07/13 11:10:55;;;;;;;10.73;6.15;;;19.40;99.90;;;;;;5093059;28;20032;-88
2023/07/13 11:13:47;;;;;;;10.02;6.65;;;19.40;99.90;;;;;;5092661;28;20393;-88
2023/07/13 11:16:36;;;;;;;10.73;6.70;;;19.30;99.90;;;;;;5093015;28;20040;-88
2023/07/13 11:19:02;;;;;;;10.15;5.55;;;19.30;99.90;;;;;;5075854;28;20040;-88
2023/07/13 11:21:30;;;;;;;11.18;6.35;;;19.10;99.90;;;;;;5075557;28;20105;-87
2023/07/13 11:24:16;;;;;;;7.63;2.80;;;18.90;99.90;;;;;;5074702;28;20457;-87
2023/07/13 11:26:50;;;;;;;5.32;2.22;;;18.40;99.90;;;;;;5075179;28;20062;-88
2023/07/13 11:29:25;;;;;;;6.82;1.83;;;17.70;99.90;;;;;;5091919;28;20036;-88
2023/07/13 11:31:57;;;;;;;7.93;2.20;;;17.20;99.90;;;;;;5091939;28;20048;-87
2023/07/13 11:34:41;;;;;;;6.70;3.00;;;17.00;99.90;;;;;;5092155;28;20405;-87
2023/07/13 11:37:17;;;;;;;7.55;3.40;;;17.00;99.90;;;;;;5075796;28;20448;-88
2023/07/13 11:39:45;;;;;;;5.20;2.30;;;17.10;99.90;;;;;;5092177;28;20040;-87
2023/07/13 11:42:17;;;;;;;7.60;3.40;;;17.30;99.90;;;;;;5074300;28;20383;-88
2023/07/13 11:44:47;;;;;;;8.57;3.17;;;17.40;99.90;;;;;;5075089;28;20039;-87
2023/07/13 11:47:22;;;;;;;7.78;3.65;;;17.60;99.90;;;;;;5092197;28;20435;-88
2023/07/13 11:49:53;;;;;;;13.13;3.33;;;17.70;99.90;;;;;;5091942;28;20036;-87
2023/07/13 11:52:27;;;;;;;6.85;2.92;;;17.90;99.90;;;;;;5074711;28;20040;-87
2023/07/13 11:54:56;;;;;;;6.00;2.22;;;18.10;99.90;;;;;;5092056;28;20048;-87
2023/07/13 11:57:29;;;;;;;8.60;3.83;;;18.30;99.90;;;;;;5092117;28;20093;-87
2023/07/13 11:59:56;;;;;;;8.10;3.35;;;18.60;99.90;;;;;;5075185;28;20036;-87
2023/07/13 12:02:33;;;;;;;7.82;3.80;;;18.90;99.90;;;;;;5074248;28;20032;-87
2023/07/13 12:05:00;;;;;;;9.85;4.18;;;19.20;99.90;;;;;;5090708;28;20119;-87
2023/07/13 12:07:30;;;;;;;8.57;3.83;;;19.30;99.90;;;;;;5091758;28;20123;-88
2023/07/13 12:10:21;;;;;;;9.70;4.45;;;19.40;99.90;;;;;;5091552;28;20119;-88
2023/07/13 12:12:54;;;;;;;10.18;4.32;;;19.70;99.90;;;;;;5091969;28;20073;-88
2023/07/13 12:15:22;;;;;;;10.60;5.28;;;19.80;99.90;;;;;;5072386;28;20105;-87
2023/07/13 12:17:48;;;;;;;10.75;5.38;;;20.00;99.90;;;;;;5062908;28;20040;-88
2023/07/13 12:20:40;;;;;;;10.27;5.05;;;20.20;99.90;;;;;;5080324;28;20032;-88
2023/07/13 12:23:35;;;;;;;10.63;6.03;;;20.30;99.90;;;;;;5074329;28;20131;-88
2023/07/13 12:26:04;;;;;;;10.70;5.97;;;20.40;99.90;;;;;;5084630;28;20432;-88
2023/07/13 12:28:36;;;;;;;9.52;6.43;;;20.60;99.90;;;;;;5091437;28;20042;-88
2023/07/13 12:31:06;;;;;;;10.93;5.13;;;20.80;99.90;;;;;;5091711;28;20119;-88
2023/07/13 12:33:33;;;;;;;9.07;4.65;;;20.90;99.90;;;;;;5084478;28;20079;-88
2023/07/13 12:36:05;;;;;;;10.77;5.05;;;21.10;99.90;;;;;;5063473;28;20093;-88
2023/07/13 12:38:35;;;;;;;10.48;4.10;;;21.20;99.90;;;;;;5063641;28;20032;-88
2023/07/13 12:41:03;;;;;;;10.50;4.47;;;21.20;99.90;;;;;;5064737;28;20166;-87
2023/07/13 12:43:36;;;;;;;8.85;4.65;;;21.10;99.90;;;;;;5063493;28;20115;-88
2023/07/13 12:46:04;;;;;;;11.13;5.00;;;21.10;99.90;;;;;;5063829;28;20057;-88
2023/07/13 12:48:38;;;;;;;11.43;4.38;;;21.10;99.90;;;;;;5077252;28;20043;-88
2023/07/13 12:51:09;;;;;;;11.15;3.58;;;21.20;99.90;;;;;;5054662;28;20100;-87
2023/07/13 12:53:40;;;;;;;9.25;3.13;;;21.20;99.90;;;;;;5070682;28;20044;-88
2023/07/13 12:56:14;;;;;;;9.52;3.28;;;21.10;99.90;;;;;;5071437;28;20124;-88
2023/07/13 12:58:43;;;;;;;8.52;3.42;;;20.90;99.90;;;;;;5070809;28;20037;-88
2023/07/13 13:01:12;;;;;;;8.27;2.75;;;20.90;99.90;;;;;;5070881;28;20079;-88
2023/07/13 13:03:41;;;;;;;8.52;3.10;;;20.80;99.90;;;;;;5069874;28;20051;-88
2023/07/13 13:06:20;;;;;;;8.65;2.63;;;20.80;99.90;;;;;;5070509;28;20033;-88
2023/07/13 13:08:48;;;;;;;8.30;2.58;;;20.70;99.90;;;;;;5053677;28;20043;-88